Cambridge, Idaho
Current Conditions -  °F | °C
As of 6:51 PM on Friday 24 Oct 2014 (Local Time) from KMYL Reporting Station
Clear Clear  
Wind Chill: 44°   Ceiling: Unl
Heat Index: 47°   Visibility: 10mi
Dew Point: 44°   Wind: 6mph
Humidity: 90%   Direction: 10°N
Pressure: 30.03"   Gusts: NA
Location:  44.57°N, 116.68°W
Report Text: KMYL 250051Z AUTO 01005KT 10SM CLR 08/07 A3003 RMK AO2 SLP165 T00830067
Loading
Personal Weather Stations






























Interactive Weather Map
Tropical Storm Tracking
New forecast layout! Learn more

10-Day Weather Forecast

Advertisements
Track Severe Weather on mobile